City Of Cleveland — WDC2358 — position and weather

sailwx.info

Track history (hours):
 
Tides and Currents Weather Stations Pressure Air Temp Water Temp Dewpoint Dewpoint Depression Visibility Wind Speed Wind Dir Waves Ship Positions

City Of Cleveland

Owner: JANTRAN, INC., ROSEDALE, MS. More information available from US FCC via Universal Licensing System and Coast Guard Vessel Documentation Center.

Last reported at 2016-Jan-26 06:16 UTC. Time now 2016-Feb-10 17:50 UTC.
Position N 32°37' W 091°09'.
Warning: this ship's position is 15 days out of date.

Length 42 m; draft 12.5 m.

Type: Towing. MMSI: 366991810.

Date/timePositionNaut miles runAvg speedWind from/ knotsBaromVisibWave heightAir tempDewpointWater temp
2016-Jan-26 06:16N 32°37' W 091°09'7 4.0
2016-Jan-26 04:25N 32°30' W 091°07'3 3.3
2016-Jan-26 03:31N 32°27' W 091°05'11 3.4
2016-Jan-26 00:16N 32°20' W 090°55'3 3.6
2016-Jan-25 23:34N 32°18' W 090°56'0 0.5
2016-Jan-25 22:33N 32°18' W 090°56'0 0.1
2016-Jan-25 21:34N 32°18' W 090°56'3 3.4
2016-Jan-25 20:33N 32°15' W 090°58'5 5.1
2016-Jan-25 19:34N 32°10' W 090°60'4 4.0
2016-Jan-25 18:33N 32°08' W 091°04'3 2.6
2016-Jan-25 17:33N 32°05' W 091°05'4 3.7
2016-Jan-25 16:34N 32°02' W 091°04'  
2016-Jan-16 13:30N 32°07' W 091°06'8 8.6
2016-Jan-16 12:33N 32°13' W 090°59'6 6.4
2016-Jan-16 11:33N 32°18' W 090°55'0 0.0
2016-Jan-16 10:34N 32°18' W 090°55'0 0.0
2016-Jan-16 09:33N 32°18' W 090°55'0 0.0
2016-Jan-16 08:33N 32°18' W 090°55'0 0.0
2016-Jan-16 07:33N 32°18' W 090°55'0 0.0
2016-Jan-16 06:34N 32°18' W 090°55'  
Track history (hours):
 
Tides and Currents Weather Stations Pressure Air Temp Water Temp Dewpoint Dewpoint Depression Visibility Wind Speed Wind Dir Waves Ship Positions

City Of Cleveland

Owner: JANTRAN, INC., ROSEDALE, MS. More information available from US FCC via Universal Licensing System and Coast Guard Vessel Documentation Center.

Last reported at 2016-Jan-26 06:16 UTC. Time now 2016-Feb-10 17:50 UTC.
Position N 32°37' W 091°09'.
Warning: this ship's position is 15 days out of date.

Length 42 m; draft 12.5 m.

Type: Towing. MMSI: 366991810.

Date/timePositionNaut miles runAvg speedWind from/ knotsBaromVisibWave heightAir tempDewpointWater temp
2016-Jan-26 06:16N 32°37' W 091°09'7 4.0
2016-Jan-26 04:25N 32°30' W 091°07'3 3.3
2016-Jan-26 03:31N 32°27' W 091°05'11 3.4
2016-Jan-26 00:16N 32°20' W 090°55'3 3.6
2016-Jan-25 23:34N 32°18' W 090°56'0 0.5
2016-Jan-25 22:33N 32°18' W 090°56'0 0.1
2016-Jan-25 21:34N 32°18' W 090°56'3 3.4
2016-Jan-25 20:33N 32°15' W 090°58'5 5.1
2016-Jan-25 19:34N 32°10' W 090°60'4 4.0
2016-Jan-25 18:33N 32°08' W 091°04'3 2.6
2016-Jan-25 17:33N 32°05' W 091°05'4 3.7
2016-Jan-25 16:34N 32°02' W 091°04'  
2016-Jan-16 13:30N 32°07' W 091°06'8 8.6
2016-Jan-16 12:33N 32°13' W 090°59'6 6.4
2016-Jan-16 11:33N 32°18' W 090°55'0 0.0
2016-Jan-16 10:34N 32°18' W 090°55'0 0.0
2016-Jan-16 09:33N 32°18' W 090°55'0 0.0
2016-Jan-16 08:33N 32°18' W 090°55'0 0.0
2016-Jan-16 07:33N 32°18' W 090°55'0 0.0
2016-Jan-16 06:34N 32°18' W 090°55'  

Dump ship's entire track history